Observation data for Goodlett on 05/25/2019      Previous  Date  Next       Current Mesonet Observations  Soil Data  Daily Summary Page  Observations in Plain Language
KGDS 250500Z 14003KT 18/16 A2994 RMK A01 T01770163  RH  096%=      5-min Rain = 0
KGDS 250505Z 12003KT 18/16 A2994 RMK A01 T01760162  RH  096%=      5-min Rain = 0
KGDS 250510Z 12004KT 18/16 A2994 RMK A01 T01750162  RH  096%=      5-min Rain = 0
KGDS 250515Z 12005KT 18/16 A2994 RMK A01 T01750162  RH  097%=      5-min Rain = 0
KGDS 250520Z 12005KT 17/16 A2994 RMK A01 T01740162  RH  097%=      5-min Rain = 0
KGDS 250525Z 12006KT 17/16 A2993 RMK A01 T01740162  RH  097%=      5-min Rain = 0
KGDS 250530Z 14005KT 17/16 A2993 RMK A01 T01740162  RH  097%=      5-min Rain = 0
KGDS 250535Z 16005KT 17/16 A2994 RMK A01 T01740162  RH  097%=      5-min Rain = 0
KGDS 250540Z 14005KT 18/16 A2994 RMK A01 T01750163  RH  097%=      5-min Rain = 0
KGDS 250545Z 15006KT 18/16 A2994 RMK A01 T01750163  RH  097%=      5-min Rain = 0
KGDS 250550Z 15006KT 18/16 A2994 RMK A01 T01750163  RH  097%=      5-min Rain = 0
KGDS 250555Z 15006KT 17/16 A2994 RMK A01 T01740162  RH  097%=      5-min Rain = 0
KGDS 250600Z 15005KT 17/16 A2995 RMK A01 T01740162  RH  097%=      5-min Rain = 0
KGDS 250605Z 14005KT 17/16 A2995 RMK A01 T01730161  RH  097%=      5-min Rain = 0
KGDS 250610Z 15006KT 17/16 A2995 RMK A01 T01730161  RH  097%=      5-min Rain = 0
KGDS 250615Z 13004KT 17/16 A2995 RMK A01 T01720161  RH  097%=      5-min Rain = 0
KGDS 250620Z 13004KT 17/16 A2995 RMK A01 T01720160  RH  097%=      5-min Rain = 0.01
KGDS 250625Z 16004KT 17/16 A2995 RMK A01 T01720160  RH  097%=      5-min Rain = 0
KGDS 250630Z 15005KT 17/16 A2995 RMK A01 T01710159  RH  097%=      5-min Rain = 0
KGDS 250635Z 14005KT 17/16 A2995 RMK A01 T01710159  RH  097%=      5-min Rain = 0
KGDS 250640Z 14005KT 17/16 A2995 RMK A01 T01710159  RH  097%=      5-min Rain = 0
KGDS 250645Z 14006KT 17/16 A2994 RMK A01 T01710159  RH  097%=      5-min Rain = 0
KGDS 250650Z 13007KT 17/16 A2994 RMK A01 T01700158  RH  097%=      5-min Rain = 0
KGDS 250655Z 15007KT 17/16 A2994 RMK A01 T01700158  RH  097%=      5-min Rain = 0
KGDS 250700Z 13007KT 17/16 A2994 RMK A01 T01690158  RH  097%=      5-min Rain = 0
KGDS 250705Z 14006KT 17/16 A2994 RMK A01 T01690157  RH  097%=      5-min Rain = 0
KGDS 250710Z 14005KT 17/16 A2994 RMK A01 T01690157  RH  097%=      5-min Rain = 0
KGDS 250715Z 14006KT 17/16 A2994 RMK A01 T01680157  RH  097%=      5-min Rain = 0
KGDS 250720Z 13008KT 17/16 A2994 RMK A01 T01680156  RH  097%=      5-min Rain = 0
KGDS 250725Z 14008KT 17/16 A2993 RMK A01 T01680156  RH  097%=      5-min Rain = 0
KGDS 250730Z 13007KT 17/16 A2993 RMK A01 T01680156  RH  097%=      5-min Rain = 0
KGDS 250735Z 14007KT 17/16 A2993 RMK A01 T01680156  RH  097%=      5-min Rain = 0
KGDS 250740Z 13006KT 17/16 A2993 RMK A01 T01680156  RH  097%=      5-min Rain = 0
KGDS 250745Z 13006KT 17/16 A2993 RMK A01 T01680156  RH  097%=      5-min Rain = 0
KGDS 250750Z 12007KT 17/16 A2993 RMK A01 T01680156  RH  097%=      5-min Rain = 0
KGDS 250755Z 12008KT 17/16 A2992 RMK A01 T01690157  RH  097%=      5-min Rain = 0
KGDS 250800Z 12008KT 17/16 A2992 RMK A01 T01700157  RH  096%=      5-min Rain = 0
KGDS 250805Z 12008KT 17/16 A2992 RMK A01 T01710158  RH  096%=      5-min Rain = 0
KGDS 250810Z 11008KT 17/16 A2992 RMK A01 T01710158  RH  096%=      5-min Rain = 0
KGDS 250815Z 12008KT 17/16 A2992 RMK A01 T01720158  RH  096%=      5-min Rain = 0
KGDS 250820Z 12009KT 17/16 A2993 RMK A01 T01730159  RH  096%=      5-min Rain = 0
KGDS 250825Z 12009KT 17/16 A2992 RMK A01 T01730160  RH  096%=      5-min Rain = 0
KGDS 250830Z 12009KT 17/16 A2992 RMK A01 T01740161  RH  096%=      5-min Rain = 0
KGDS 250835Z 12009KT 18/16 A2992 RMK A01 T01750161  RH  096%=      5-min Rain = 0
KGDS 250840Z 12010KT 18/16 A2992 RMK A01 T01750162  RH  096%=      5-min Rain = 0
KGDS 250845Z 12010KT 18/16 A2992 RMK A01 T01760163  RH  096%=      5-min Rain = 0
KGDS 250850Z 12010KT 18/16 A2992 RMK A01 T01770163  RH  097%=      5-min Rain = 0
KGDS 250855Z 12010KT 18/17 A2992 RMK A01 T01770165  RH  097%=      5-min Rain = 0
KGDS 250900Z 12009G14KT 18/17 A2992 RMK A01 T01780165  RH  097%=      5-min Rain = 0
KGDS 250905Z 12009KT 18/17 A2992 RMK A01 T01780166  RH  097%=      5-min Rain = 0
KGDS 250910Z 12009KT 18/17 A2992 RMK A01 T01790166  RH  097%=      5-min Rain = 0
KGDS 250915Z 13009KT 18/17 A2992 RMK A01 T01790166  RH  097%=      5-min Rain = 0
KGDS 250920Z 13009KT 18/17 A2992 RMK A01 T01790167  RH  097%=      5-min Rain = 0
KGDS 250925Z 13009KT 18/17 A2992 RMK A01 T01790167  RH  097%=      5-min Rain = 0
KGDS 250930Z 13009KT 18/17 A2992 RMK A01 T01790167  RH  097%=      5-min Rain = 0
KGDS 250935Z 14009KT 18/17 A2992 RMK A01 T01790167  RH  098%=      5-min Rain = 0
KGDS 250940Z 14009KT 18/17 A2992 RMK A01 T01790168  RH  098%=      5-min Rain = 0
KGDS 250945Z 14009KT 18/17 A2992 RMK A01 T01790168  RH  098%=      5-min Rain = 0
KGDS 250950Z 13008KT 18/17 A2992 RMK A01 T01790168  RH  098%=      5-min Rain = 0
KGDS 250955Z 13009KT 18/17 A2992 RMK A01 T01800169  RH  098%=      5-min Rain = 0
KGDS 251000Z 14009KT 18/17 A2992 RMK A01 T01800169  RH  098%=      5-min Rain = 0
KGDS 251005Z 14009KT 18/17 A2993 RMK A01 T01800169  RH  098%=      5-min Rain = 0
KGDS 251010Z 14009KT 18/17 A2993 RMK A01 T01810170  RH  098%=      5-min Rain = 0
KGDS 251015Z 14009KT 18/17 A2993 RMK A01 T01810170  RH  098%=      5-min Rain = 0
KGDS 251020Z 14009KT 18/17 A2992 RMK A01 T01810171  RH  098%=      5-min Rain = 0
KGDS 251025Z 15009KT 18/17 A2992 RMK A01 T01820172  RH  098%=      5-min Rain = 0
KGDS 251030Z 15008KT 18/17 A2992 RMK A01 T01830172  RH  098%=      5-min Rain = 0
KGDS 251035Z 14008KT 18/17 A2993 RMK A01 T01830172  RH  098%=      5-min Rain = 0
KGDS 251040Z 14009KT 18/17 A2993 RMK A01 T01840172  RH  098%=      5-min Rain = 0
KGDS 251045Z 14008KT 18/17 A2993 RMK A01 T01840173  RH  098%=      5-min Rain = 0
KGDS 251050Z 14009KT 18/17 A2993 RMK A01 T01840173  RH  098%=      5-min Rain = 0
KGDS 251055Z 14009KT 19/17 A2993 RMK A01 T01850173  RH  098%=      5-min Rain = 0
KGDS 251100Z 14009KT 19/17 A2994 RMK A01 T01850174  RH  098%=      5-min Rain = 0
KGDS 251105Z 14009KT 19/17 A2994 RMK A01 T01860174  RH  098%=      5-min Rain = 0
KGDS 251110Z 14009KT 19/18 A2994 RMK A01 T01870175  RH  098%=      5-min Rain = 0
KGDS 251115Z 14008KT 19/18 A2994 RMK A01 T01870175  RH  098%=      5-min Rain = 0
KGDS 251120Z 14007KT 19/18 A2994 RMK A01 T01870175  RH  097%=      5-min Rain = 0
KGDS 251125Z 14006KT 19/18 A2994 RMK A01 T01870175  RH  098%=      5-min Rain = 0
KGDS 251130Z 13007KT 19/18 A2994 RMK A01 T01870175  RH  097%=      5-min Rain = 0
KGDS 251135Z 13007KT 19/18 A2994 RMK A01 T01870175  RH  098%=      5-min Rain = 0
KGDS 251140Z 13007KT 19/18 A2995 RMK A01 T01870175  RH  098%=      5-min Rain = 0
KGDS 251145Z 13006KT 19/18 A2995 RMK A01 T01870175  RH  098%=      5-min Rain = 0
KGDS 251150Z 13006KT 19/18 A2995 RMK A01 T01870175  RH  098%=      5-min Rain = 0
KGDS 251155Z 12006KT 19/18 A2995 RMK A01 T01870176  RH  098%=      5-min Rain = 0
KGDS 251200Z 12006KT 19/18 A2995 RMK A01 T01870176  RH  098%=      5-min Rain = 0
KGDS 251205Z 12006KT 19/18 A2995 RMK A01 T01870176  RH  098%=      5-min Rain = 0
KGDS 251210Z 12007KT 19/18 A2996 RMK A01 T01880177  RH  098%=      5-min Rain = 0
KGDS 251215Z 12007KT 19/18 A2996 RMK A01 T01890177  RH  098%=      5-min Rain = 0
KGDS 251220Z 12007KT 19/18 A2996 RMK A01 T01900178  RH  098%=      5-min Rain = 0
KGDS 251225Z 12007KT 19/18 A2996 RMK A01 T01900179  RH  098%=      5-min Rain = 0
KGDS 251230Z 12007KT 19/18 A2996 RMK A01 T01910179  RH  098%=      5-min Rain = 0
KGDS 251235Z 13007KT 19/18 A2996 RMK A01 T01920180  RH  097%=      5-min Rain = 0
KGDS 251240Z 13007KT 19/18 A2996 RMK A01 T01930181  RH  097%=      5-min Rain = 0
KGDS 251245Z 13007KT 19/18 A2997 RMK A01 T01940182  RH  097%=      5-min Rain = 0
KGDS 251250Z 13007KT 20/18 A2997 RMK A01 T01960183  RH  097%=      5-min Rain = 0
KGDS 251255Z 14008KT 20/18 A2997 RMK A01 T01970183  RH  097%=      5-min Rain = 0
KGDS 251300Z 14008KT 20/18 A2997 RMK A01 T01980183  RH  096%=      5-min Rain = 0
KGDS 251305Z 14008KT 20/19 A2997 RMK A01 T02000185  RH  096%=      5-min Rain = 0
KGDS 251310Z 14008KT 20/19 A2997 RMK A01 T02030186  RH  095%=      5-min Rain = 0
KGDS 251315Z 15008KT 21/19 A2997 RMK A01 T02060188  RH  095%=      5-min Rain = 0
KGDS 251320Z 15008G13KT 21/19 A2997 RMK A01 T02100190  RH  094%=      5-min Rain = 0
KGDS 251325Z 15008KT 21/19 A2998 RMK A01 T02130192  RH  093%=      5-min Rain = 0
KGDS 251330Z 15009KT 21/19 A2998 RMK A01 T02130191  RH  092%=      5-min Rain = 0
KGDS 251335Z 15009KT 21/19 A2998 RMK A01 T02140191  RH  092%=      5-min Rain = 0
KGDS 251340Z 15009KT 22/19 A2998 RMK A01 T02150191  RH  092%=      5-min Rain = 0
KGDS 251345Z 15009KT 22/19 A2998 RMK A01 T02150191  RH  091%=      5-min Rain = 0
KGDS 251350Z 15009KT 22/19 A2998 RMK A01 T02160192  RH  091%=      5-min Rain = 0
KGDS 251355Z 16008KT 22/19 A2998 RMK A01 T02160193  RH  092%=      5-min Rain = 0
KGDS 251400Z 16010KT 22/19 A2998 RMK A01 T02190194  RH  090%=      5-min Rain = 0
KGDS 251405Z 16010KT 22/19 A2998 RMK A01 T02200194  RH  090%=      5-min Rain = 0
KGDS 251410Z 16010KT 22/19 A2999 RMK A01 T02220194  RH  089%=      5-min Rain = 0
KGDS 251415Z 16012KT 22/19 A2999 RMK A01 T02210193  RH  089%=      5-min Rain = 0
KGDS 251420Z 16010KT 22/19 A2999 RMK A01 T02210194  RH  089%=      5-min Rain = 0
KGDS 251425Z 16012KT 22/19 A2999 RMK A01 T02210193  RH  089%=      5-min Rain = 0
KGDS 251430Z 15009KT 22/20 A2999 RMK A01 T02220195  RH  090%=      5-min Rain = 0
KGDS 251435Z 16011KT 23/20 A2998 RMK A01 T02250195  RH  088%=      5-min Rain = 0
KGDS 251440Z 16012KT 23/19 A2998 RMK A01 T02250194  RH  088%=      5-min Rain = 0
KGDS 251445Z 16012KT 23/20 A2998 RMK A01 T02270196  RH  088%=      5-min Rain = 0
KGDS 251450Z 16013KT 23/20 A2998 RMK A01 T02300196  RH  086%=      5-min Rain = 0
KGDS 251455Z 16012G17KT 23/20 A2998 RMK A01 T02340199  RH  086%=      5-min Rain = 0
KGDS 251500Z 16012G17KT 23/20 A2998 RMK A01 T02340199  RH  085%=      5-min Rain = 0
KGDS 251505Z 16012KT 23/20 A2998 RMK A01 T02320198  RH  086%=      5-min Rain = 0
KGDS 251510Z 17012G17KT 24/20 A2999 RMK A01 T02370200  RH  085%=      5-min Rain = 0
KGDS 251515Z 17013KT 24/20 A2998 RMK A01 T02410201  RH  083%=      5-min Rain = 0
KGDS 251520Z 17012KT 25/20 A2998 RMK A01 T02460203  RH  082%=      5-min Rain = 0
KGDS 251525Z 18011KT 25/20 A2998 RMK A01 T02450203  RH  082%=      5-min Rain = 0
KGDS 251530Z 17012KT 25/20 A2998 RMK A01 T02470203  RH  081%=      5-min Rain = 0
KGDS 251535Z 17013G19KT 25/20 A2998 RMK A01 T02500202  RH  079%=      5-min Rain = 0
KGDS 251540Z 18015KT 25/20 A2998 RMK A01 T02480199  RH  079%=      5-min Rain = 0
KGDS 251545Z 18015G20KT 25/20 A2998 RMK A01 T02510201  RH  078%=      5-min Rain = 0
KGDS 251550Z 17017KT 25/20 A2998 RMK A01 T02510200  RH  078%=      5-min Rain = 0
KGDS 251555Z 17016G21KT 25/20 A2998 RMK A01 T02540201  RH  077%=      5-min Rain = 0
KGDS 251600Z 17016KT 25/20 A2998 RMK A01 T02540202  RH  077%=      5-min Rain = 0
KGDS 251605Z 17014KT 26/20 A2998 RMK A01 T02550202  RH  077%=      5-min Rain = 0
KGDS 251610Z 18015KT 26/20 A2998 RMK A01 T02550202  RH  077%=      5-min Rain = 0
KGDS 251615Z 18014G19KT 26/20 A2998 RMK A01 T02580203  RH  076%=      5-min Rain = 0
KGDS 251620Z 17015G20KT 26/20 A2998 RMK A01 T02590204  RH  076%=      5-min Rain = 0
KGDS 251625Z 18016G21KT 26/20 A2998 RMK A01 T02570201  RH  076%=      5-min Rain = 0
KGDS 251630Z 17014G19KT 26/21 A2998 RMK A01 T02610205  RH  075%=      5-min Rain = 0
KGDS 251635Z 18016KT 26/20 A2998 RMK A01 T02640204  RH  074%=      5-min Rain = 0
KGDS 251640Z 18015G20KT 26/20 A2998 RMK A01 T02620203  RH  074%=      5-min Rain = 0
KGDS 251645Z 17015G20KT 27/21 A2998 RMK A01 T02650205  RH  074%=      5-min Rain = 0
KGDS 251650Z 17016G21KT 26/20 A2998 RMK A01 T02620202  RH  074%=      5-min Rain = 0
KGDS 251655Z 18015G23KT 27/20 A2998 RMK A01 T02660204  RH  073%=      5-min Rain = 0
KGDS 251700Z 18016KT 27/20 A2998 RMK A01 T02660204  RH  073%=      5-min Rain = 0
KGDS 251705Z 18016KT 27/20 A2998 RMK A01 T02670203  RH  072%=      5-min Rain = 0
KGDS 251710Z 17014KT 27/21 A2998 RMK A01 T02670206  RH  073%=      5-min Rain = 0
KGDS 251715Z 17015G20KT 27/21 A2998 RMK A01 T02660205  RH  073%=      5-min Rain = 0
KGDS 251720Z 18014G19KT 27/20 A2998 RMK A01 T02650204  RH  073%=      5-min Rain = 0
KGDS 251725Z 18015G20KT 27/20 A2998 RMK A01 T02650204  RH  073%=      5-min Rain = 0
KGDS 251730Z 17016KT 27/20 A2998 RMK A01 T02650204  RH  073%=      5-min Rain = 0
KGDS 251735Z 17015KT 26/20 A2998 RMK A01 T02640204  RH  074%=      5-min Rain = 0
KGDS 251740Z 17016KT 26/20 A2998 RMK A01 T02620203  RH  075%=      5-min Rain = 0
KGDS 251745Z 17014KT 26/20 A2997 RMK A01 T02630204  RH  074%=      5-min Rain = 0
KGDS 251750Z 17015KT 27/21 A2997 RMK A01 T02650206  RH  074%=      5-min Rain = 0
KGDS 251755Z 17013G18KT 27/21 A2997 RMK A01 T02670208  RH  074%=      5-min Rain = 0
KGDS 251800Z 16012KT 27/21 A2997 RMK A01 T02690208  RH  074%=      5-min Rain = 0
KGDS 251805Z 16011KT 27/21 A2997 RMK A01 T02680209  RH  075%=      5-min Rain = 0
KGDS 251810Z 16012KT 27/21 A2997 RMK A01 T02660208  RH  075%=      5-min Rain = 0
KGDS 251815Z 16011KT 27/21 A2996 RMK A01 T02650207  RH  075%=      5-min Rain = 0
KGDS 251820Z 16011KT 27/21 A2996 RMK A01 T02670207  RH  074%=      5-min Rain = 0
KGDS 251825Z 16011KT 26/21 A2996 RMK A01 T02640205  RH  074%=      5-min Rain = 0
KGDS 251830Z 16012G17KT 27/21 A2996 RMK A01 T02660206  RH  074%=      5-min Rain = 0
KGDS 251835Z 16010KT 27/21 A2995 RMK A01 T02670207  RH  074%=      5-min Rain = 0
KGDS 251840Z 15010KT 27/21 A2995 RMK A01 T02660207  RH  074%=      5-min Rain = 0
KGDS 251845Z 16009KT 27/21 A2995 RMK A01 T02670208  RH  075%=      5-min Rain = 0
KGDS 251850Z 15010G15KT 27/21 A2995 RMK A01 T02700210  RH  074%=      5-min Rain = 0
KGDS 251855Z 16010KT 27/21 A2995 RMK A01 T02680209  RH  074%=      5-min Rain = 0
KGDS 251900Z 15009KT 27/21 A2995 RMK A01 T02680209  RH  074%=      5-min Rain = 0
KGDS 251905Z 16009KT 27/21 A2995 RMK A01 T02680209  RH  075%=      5-min Rain = 0
KGDS 251910Z 15009KT 27/21 A2994 RMK A01 T02680209  RH  074%=      5-min Rain = 0
KGDS 251915Z 15009KT 27/21 A2994 RMK A01 T02700210  RH  074%=      5-min Rain = 0
KGDS 251920Z 15010KT 27/21 A2994 RMK A01 T02720208  RH  072%=      5-min Rain = 0
KGDS 251925Z 16010KT 27/21 A2994 RMK A01 T02680210  RH  075%=      5-min Rain = 0.01
KGDS 251930Z 15010KT 26/21 A2994 RMK A01 T02620211  RH  078%=      5-min Rain = 0
KGDS 251935Z 15009KT 27/21 A2994 RMK A01 T02660212  RH  077%=      5-min Rain = 0
KGDS 251940Z 15010KT 27/21 A2994 RMK A01 T02680210  RH  075%=      5-min Rain = 0
KGDS 251945Z 14010KT 27/21 A2993 RMK A01 T02720212  RH  074%=      5-min Rain = 0
KGDS 251950Z 14010G15KT 27/21 A2993 RMK A01 T02740211  RH  073%=      5-min Rain = 0
KGDS 251955Z 14011KT 27/21 A2993 RMK A01 T02730211  RH  073%=      5-min Rain = 0
KGDS 252000Z 13010KT 27/21 A2992 RMK A01 T02680212  RH  076%=      5-min Rain = 0
KGDS 252005Z 15009KT 27/21 A2992 RMK A01 T02670212  RH  076%=      5-min Rain = 0
KGDS 252010Z 15007KT 27/21 A2992 RMK A01 T02710214  RH  076%=      5-min Rain = 0
KGDS 252015Z 15009KT 27/21 A2992 RMK A01 T02710211  RH  074%=      5-min Rain = 0
KGDS 252020Z 15007KT 27/21 A2992 RMK A01 T02710212  RH  075%=      5-min Rain = 0
KGDS 252025Z 15008KT 27/21 A2992 RMK A01 T02720211  RH  074%=      5-min Rain = 0
KGDS 252030Z 14009KT 27/21 A2991 RMK A01 T02740212  RH  074%=      5-min Rain = 0
KGDS 252035Z 15011G18KT 28/21 A299 RMK A01 T02760211  RH  072%=      5-min Rain = 0
KGDS 252040Z 15012KT 28/21 A299 RMK A01 T02790208  RH  069%=      5-min Rain = 0
KGDS 252045Z 16012KT 28/21 A299 RMK A01 T02800210  RH  070%=      5-min Rain = 0
KGDS 252050Z 15012G18KT 28/21 A299 RMK A01 T02800209  RH  069%=      5-min Rain = 0
KGDS 252055Z 15013KT 28/21 A299 RMK A01 T02790207  RH  069%=      5-min Rain = 0
KGDS 252100Z 15011KT 28/21 A299 RMK A01 T02780209  RH  070%=      5-min Rain = 0
KGDS 252105Z 15011KT 28/21 A299 RMK A01 T02770208  RH  070%=      5-min Rain = 0
KGDS 252110Z 15010KT 28/21 A2989 RMK A01 T02770209  RH  070%=      5-min Rain = 0
KGDS 252115Z 15009KT 28/21 A2989 RMK A01 T02770209  RH  071%=      5-min Rain = 0
KGDS 252120Z 16009KT 28/21 A2989 RMK A01 T02760209  RH  071%=      5-min Rain = 0
KGDS 252125Z 16011KT 28/21 A2989 RMK A01 T02770209  RH  071%=      5-min Rain = 0
KGDS 252130Z 15011KT 28/21 A2989 RMK A01 T02800209  RH  070%=      5-min Rain = 0
KGDS 252135Z 15012G19KT 28/21 A2988 RMK A01 T02810210  RH  070%=      5-min Rain = 0
KGDS 252140Z 16015G22KT 28/21 A2988 RMK A01 T02820207  RH  068%=      5-min Rain = 0
KGDS 252145Z 16012G17KT 28/21 A2988 RMK A01 T02830208  RH  068%=      5-min Rain = 0
KGDS 252150Z 16016G21KT 29/21 A2987 RMK A01 T02860207  RH  066%=      5-min Rain = 0
KGDS 252155Z 17016G21KT 29/21 A2986 RMK A01 T02870206  RH  065%=      5-min Rain = 0
KGDS 252200Z 16017G22KT 29/21 A2986 RMK A01 T02860206  RH  066%=      5-min Rain = 0
KGDS 252205Z 16018G25KT 29/20 A2985 RMK A01 T02860204  RH  065%=      5-min Rain = 0
KGDS 252210Z 16016G24KT 29/21 A2985 RMK A01 T02860207  RH  066%=      5-min Rain = 0
KGDS 252215Z 16017G23KT 29/21 A2985 RMK A01 T02850206  RH  066%=      5-min Rain = 0
KGDS 252220Z 16018G23KT 29/21 A2985 RMK A01 T02850206  RH  066%=      5-min Rain = 0
KGDS 252225Z 16016G22KT 29/21 A2985 RMK A01 T02850206  RH  066%=      5-min Rain = 0
KGDS 252230Z 16017G27KT 29/21 A2985 RMK A01 T02850208  RH  067%=      5-min Rain = 0
KGDS 252235Z 17018G26KT 29/21 A2985 RMK A01 T02860206  RH  066%=      5-min Rain = 0
KGDS 252240Z 17017G25KT 29/21 A2985 RMK A01 T02850206  RH  066%=      5-min Rain = 0
KGDS 252245Z 16019G24KT 29/21 A2985 RMK A01 T02850205  RH  066%=      5-min Rain = 0
KGDS 252250Z 17016G23KT 28/21 A2985 RMK A01 T02820205  RH  067%=      5-min Rain = 0
KGDS 252255Z 17016G23KT 28/20 A2986 RMK A01 T02830203  RH  066%=      5-min Rain = 0
KGDS 252300Z 17015G21KT 28/20 A2985 RMK A01 T02810204  RH  067%=      5-min Rain = 0
KGDS 252305Z 17016G21KT 28/21 A2985 RMK A01 T02800205  RH  068%=      5-min Rain = 0
KGDS 252310Z 17016G22KT 28/20 A2984 RMK A01 T02790204  RH  067%=      5-min Rain = 0
KGDS 252315Z 17016G22KT 28/20 A2984 RMK A01 T02780203  RH  068%=      5-min Rain = 0
KGDS 252320Z 17015KT 28/20 A2984 RMK A01 T02760203  RH  068%=      5-min Rain = 0
KGDS 252325Z 17013G18KT 27/21 A2984 RMK A01 T02740205  RH  070%=      5-min Rain = 0
KGDS 252330Z 17014G19KT 27/21 A2984 RMK A01 T02730205  RH  070%=      5-min Rain = 0
KGDS 252335Z 17014KT 27/21 A2984 RMK A01 T02720205  RH  071%=      5-min Rain = 0
KGDS 252340Z 17013KT 27/21 A2983 RMK A01 T02710205  RH  071%=      5-min Rain = 0
KGDS 252345Z 17013KT 27/21 A2983 RMK A01 T02700206  RH  072%=      5-min Rain = 0
KGDS 252350Z 17014KT 27/21 A2984 RMK A01 T02700205  RH  072%=      5-min Rain = 0
KGDS 252355Z 18013KT 27/21 A2985 RMK A01 T02710205  RH  071%=      5-min Rain = 0
KGDS 260000Z 18012G17KT 27/21 A2985 RMK A01 T02710205  RH  071%=      5-min Rain = 0
KGDS 260005Z 18011KT 27/20 A2986 RMK A01 T02710204  RH  071%=      5-min Rain = 0
KGDS 260010Z 18011KT 27/21 A2987 RMK A01 T02700205  RH  072%=      5-min Rain = 0
KGDS 260015Z 18011KT 27/21 A2986 RMK A01 T02690205  RH  072%=      5-min Rain = 0
KGDS 260020Z 18012KT 27/20 A2986 RMK A01 T02680204  RH  072%=      5-min Rain = 0
KGDS 260025Z 17012KT 27/20 A2986 RMK A01 T02680204  RH  072%=      5-min Rain = 0
KGDS 260030Z 17012KT 27/20 A2985 RMK A01 T02670204  RH  072%=      5-min Rain = 0
KGDS 260035Z 16012KT 27/20 A2984 RMK A01 T02660204  RH  073%=      5-min Rain = 0
KGDS 260040Z 16013G18KT 26/20 A2983 RMK A01 T02640204  RH  074%=      5-min Rain = 0
KGDS 260045Z 16014KT 27/20 A2983 RMK A01 T02650203  RH  073%=      5-min Rain = 0
KGDS 260050Z 16014G20KT 27/20 A2984 RMK A01 T02670203  RH  072%=      5-min Rain = 0
KGDS 260055Z 17012KT 27/20 A2985 RMK A01 T02660203  RH  073%=      5-min Rain = 0
KGDS 260100Z 17010KT 27/20 A2986 RMK A01 T02660203  RH  072%=      5-min Rain = 0
KGDS 260105Z 18009KT 27/20 A2987 RMK A01 T02650203  RH  073%=      5-min Rain = 0
KGDS 260110Z 19008KT 26/20 A2988 RMK A01 T02640204  RH  074%=      5-min Rain = 0
KGDS 260115Z 21006KT 26/21 A2989 RMK A01 T02600205  RH  076%=      5-min Rain = 0
KGDS 260120Z 21007KT 26/21 A2989 RMK A01 T02570206  RH  078%=      5-min Rain = 0
KGDS 260125Z 21007KT 26/21 A2989 RMK A01 T02560206  RH  079%=      5-min Rain = 0
KGDS 260130Z 19008KT 25/21 A2988 RMK A01 T02540206  RH  080%=      5-min Rain = 0
KGDS 260135Z 18008KT 25/21 A2988 RMK A01 T02530206  RH  080%=      5-min Rain = 0
KGDS 260140Z 18008KT 25/21 A2988 RMK A01 T02530206  RH  080%=      5-min Rain = 0
KGDS 260145Z 18007KT 25/21 A2988 RMK A01 T02530206  RH  080%=      5-min Rain = 0
KGDS 260150Z 19006KT 25/21 A2989 RMK A01 T02520206  RH  080%=      5-min Rain = 0
KGDS 260155Z 19005KT 25/21 A2989 RMK A01 T02510206  RH  081%=      5-min Rain = 0
KGDS 260200Z 20003KT 25/21 A2989 RMK A01 T02500206  RH  081%=      5-min Rain = 0
KGDS 260205Z 21003KT 25/21 A2988 RMK A01 T02490206  RH  082%=      5-min Rain = 0
KGDS 260210Z 22001KT 25/21 A2988 RMK A01 T02480207  RH  082%=      5-min Rain = 0
KGDS 260215Z 31004KT 25/21 A2988 RMK A01 T02450208  RH  085%=      5-min Rain = 0
KGDS 260220Z 31010KT 24/18 A2989 RMK A01 T02360182  RH  076%=      5-min Rain = 0
KGDS 260225Z 32009KT 23/17 A2989 RMK A01 T02310172  RH  073%=      5-min Rain = 0
KGDS 260230Z 01004KT 23/18 A2989 RMK A01 T02300175  RH  075%=      5-min Rain = 0
KGDS 260235Z 01005KT 23/18 A2989 RMK A01 T02340178  RH  075%=      5-min Rain = 0
KGDS 260240Z 07004G9KT 24/19 A2989 RMK A01 T02390185  RH  076%=      5-min Rain = 0
KGDS 260245Z 15003KT 24/19 A299 RMK A01 T02390191  RH  079%=      5-min Rain = 0
KGDS 260250Z 13005KT 24/20 A299 RMK A01 T02420196  RH  080%=      5-min Rain = 0
KGDS 260255Z 06004KT 24/19 A299 RMK A01 T02380189  RH  078%=      5-min Rain = 0
KGDS 260300Z 03005KT 22/18 A299 RMK A01 T02210178  RH  081%=      5-min Rain = 0
KGDS 260305Z 02005KT 22/18 A2991 RMK A01 T02150176  RH  082%=      5-min Rain = 0
KGDS 260310Z 03005KT 21/17 A2991 RMK A01 T02130174  RH  082%=      5-min Rain = 0
KGDS 260315Z 04005KT 21/18 A2991 RMK A01 T02100176  RH  085%=      5-min Rain = 0
KGDS 260320Z 05004KT 21/18 A2992 RMK A01 T02110177  RH  085%=      5-min Rain = 0
KGDS 260325Z 10007KT 23/19 A2992 RMK A01 T02260193  RH  086%=      5-min Rain = 0
KGDS 260330Z 09008KT 24/20 A2992 RMK A01 T02410198  RH  082%=      5-min Rain = 0
KGDS 260335Z 08007KT 24/20 A2993 RMK A01 T02370195  RH  082%=      5-min Rain = 0
KGDS 260340Z 07007KT 23/19 A2993 RMK A01 T02330193  RH  083%=      5-min Rain = 0
KGDS 260345Z 06007KT 23/19 A2994 RMK A01 T02280191  RH  084%=      5-min Rain = 0
KGDS 260350Z 06008KT 23/19 A2994 RMK A01 T02270192  RH  085%=      5-min Rain = 0
KGDS 260355Z 05007KT 23/19 A2994 RMK A01 T02260192  RH  086%=      5-min Rain = 0
KGDS 260400Z 05007KT 23/19 A2994 RMK A01 T02260192  RH  086%=      5-min Rain = 0
KGDS 260405Z 05007KT 22/19 A2994 RMK A01 T02240191  RH  087%=      5-min Rain = 0
KGDS 260410Z 05008KT 22/19 A2994 RMK A01 T02240190  RH  086%=      5-min Rain = 0
KGDS 260415Z 05008KT 22/19 A2994 RMK A01 T02240191  RH  087%=      5-min Rain = 0
KGDS 260420Z 06008KT 22/19 A2994 RMK A01 T02230193  RH  088%=      5-min Rain = 0
KGDS 260425Z 05007KT 22/19 A2993 RMK A01 T02230194  RH  088%=      5-min Rain = 0
KGDS 260430Z 05008KT 22/19 A2993 RMK A01 T02200193  RH  089%=      5-min Rain = 0
KGDS 260435Z 05008KT 22/19 A2993 RMK A01 T02170192  RH  090%=      5-min Rain = 0
KGDS 260440Z 06008KT 22/19 A2993 RMK A01 T02160192  RH  091%=      5-min Rain = 0
KGDS 260445Z 06008KT 22/19 A2993 RMK A01 T02160194  RH  092%=      5-min Rain = 0
KGDS 260450Z 06008KT 22/19 A2993 RMK A01 T02160194  RH  092%=      5-min Rain = 0
KGDS 260455Z 06009KT 22/20 A2993 RMK A01 T02150195  RH  093%=      5-min Rain = 0

Page generated in 0.0092 seconds.